sensor_id;sensor_type;location;lat;lon;timestamp;pressure;altitude;pressure_sealevel;temperature;humidity
48892;BME280;50130;52.150;5.236;2023-01-29T00:01:31;102836.99999999999;;;5.03;87.9
48892;BME280;50130;52.150;5.236;2023-01-29T00:03:08;102831.0;;;5.12;87.04
48892;BME280;50130;52.150;5.236;2023-01-29T00:04:44;102826.0;;;5.14;86.94
48892;BME280;50130;52.150;5.236;2023-01-29T00:08:00;102824.0;;;5.13;86.49
48892;BME280;50130;52.150;5.236;2023-01-29T00:09:37;102825.0;;;5.28;85.53
48892;BME280;50130;52.150;5.236;2023-01-29T00:11:15;102823.0;;;5.18;85.89
48892;BME280;50130;52.150;5.236;2023-01-29T00:12:52;102814.00000000001;;;5.14;86.32
48892;BME280;50130;52.150;5.236;2023-01-29T00:16:05;102805.0;;;5.16;86.37
48892;BME280;50130;52.150;5.236;2023-01-29T00:17:42;102802.0;;;5.12;86.41
48892;BME280;50130;52.150;5.236;2023-01-29T00:19:20;102802.0;;;5.15;86.04
48892;BME280;50130;52.150;5.236;2023-01-29T00:22:33;102797.0;;;5.12;86.3
48892;BME280;50130;52.150;5.236;2023-01-29T00:24:10;102797.0;;;5.25;85.27
48892;BME280;50130;52.150;5.236;2023-01-29T00:25:47;102792.0;;;5.47;84.33
48892;BME280;50130;52.150;5.236;2023-01-29T00:29:01;102792.0;;;5.29;84.31
48892;BME280;50130;52.150;5.236;2023-01-29T00:30:38;102793.0;;;5.31;85.07
48892;BME280;50130;52.150;5.236;2023-01-29T00:32:15;102796.0;;;5.25;85.38
48892;BME280;50130;52.150;5.236;2023-01-29T00:33:52;102808.0;;;5.29;85.6
48892;BME280;50130;52.150;5.236;2023-01-29T00:37:07;102807.0;;;5.22;85.93
48892;BME280;50130;52.150;5.236;2023-01-29T00:38:44;102806.0;;;5.29;85.98
48892;BME280;50130;52.150;5.236;2023-01-29T00:40:22;102804.0;;;5.31;85.88
48892;BME280;50130;52.150;5.236;2023-01-29T00:46:09;102800.0;;;5.43;85.29
48892;BME280;50130;52.150;5.236;2023-01-29T00:47:46;102792.0;;;5.38;84.43
48892;BME280;50130;52.150;5.236;2023-01-29T00:49:23;102795.0;;;5.46;84.39
48892;BME280;50130;52.150;5.236;2023-01-29T00:51:01;102792.0;;;5.47;84.41
48892;BME280;50130;52.150;5.236;2023-01-29T00:52:40;102794.0;;;5.44;84.72
48892;BME280;50130;52.150;5.236;2023-01-29T00:55:54;102788.00000000001;;;5.41;84.58
48892;BME280;50130;52.150;5.236;2023-01-29T00:57:32;102781.0;;;5.4;84.16
48892;BME280;50130;52.150;5.236;2023-01-29T00:59:10;102788.00000000001;;;5.49;84.17
48892;BME280;50130;52.150;5.236;2023-01-29T01:03:28;102779.0;;;5.47;84.69
48892;BME280;50130;52.150;5.236;2023-01-29T01:05:07;102779.0;;;5.37;84.87
48892;BME280;50130;52.150;5.236;2023-01-29T01:10:57;102782.0;;;5.29;85.43
48892;BME280;50130;52.150;5.236;2023-01-29T01:12:34;102767.0;;;5.21;85.52
48892;BME280;50130;52.150;5.236;2023-01-29T01:14:10;102767.0;;;5.18;86.26
48892;BME280;50130;52.150;5.236;2023-01-29T01:15:47;102769.0;;;5.26;85.18
48892;BME280;50130;52.150;5.236;2023-01-29T01:19:02;102764.00000000001;;;5.26;85.42
48892;BME280;50130;52.150;5.236;2023-01-29T01:20:39;102764.00000000001;;;5.28;85.74
48892;BME280;50130;52.150;5.236;2023-01-29T01:22:16;102768.0;;;5.32;84.95
48892;BME280;50130;52.150;5.236;2023-01-29T01:25:29;102766.00000000001;;;5.34;84.67
48892;BME280;50130;52.150;5.236;2023-01-29T01:27:06;102767.0;;;5.29;84.39
48892;BME280;50130;52.150;5.236;2023-01-29T01:28:43;102767.0;;;5.45;83.46
48892;BME280;50130;52.150;5.236;2023-01-29T01:30:20;102772.0;;;5.46;83.35
48892;BME280;50130;52.150;5.236;2023-01-29T01:33:36;102778.0;;;5.47;83.25
48892;BME280;50130;52.150;5.236;2023-01-29T01:35:14;102783.99999999999;;;5.4;84.14
48892;BME280;50130;52.150;5.236;2023-01-29T01:36:51;102791.00000000001;;;5.41;83.43
48892;BME280;50130;52.150;5.236;2023-01-29T01:40:14;102790.00000000001;;;5.38;84.57
48892;BME280;50130;52.150;5.236;2023-01-29T01:41:53;102782.0;;;5.31;85.32
48892;BME280;50130;52.150;5.236;2023-01-29T01:43:46;102776.0;;;5.28;86.2
48892;BME280;50130;52.150;5.236;2023-01-29T01:45:25;102776.0;;;5.24;86.97
48892;BME280;50130;52.150;5.236;2023-01-29T01:47:03;102780.0;;;5.25;86.65
48892;BME280;50130;52.150;5.236;2023-01-29T01:50:23;102783.99999999999;;;5.28;86.55
48892;BME280;50130;52.150;5.236;2023-01-29T01:52:02;102780.0;;;5.24;87.12
48892;BME280;50130;52.150;5.236;2023-01-29T01:53:42;102784.99999999999;;;5.25;87.53
48892;BME280;50130;52.150;5.236;2023-01-29T01:55:25;102783.99999999999;;;5.35;86.1
48892;BME280;50130;52.150;5.236;2023-01-29T01:58:53;102788.00000000001;;;5.35;85.78
48892;BME280;50130;52.150;5.236;2023-01-29T02:00:31;102786.99999999999;;;5.21;86.03
48892;BME280;50130;52.150;5.236;2023-01-29T02:10:31;102790.00000000001;;;5.28;86.55
48892;BME280;50130;52.150;5.236;2023-01-29T02:12:13;102786.99999999999;;;5.26;86.81
48892;BME280;50130;52.150;5.236;2023-01-29T02:15:29;102782.0;;;5.28;86.76
48892;BME280;50130;52.150;5.236;2023-01-29T02:17:09;102778.0;;;5.14;87.94
48892;BME280;50130;52.150;5.236;2023-01-29T02:18:47;102779.0;;;5.23;87.64
48892;BME280;50130;52.150;5.236;2023-01-29T02:20:27;102777.0;;;5.16;87.5
48892;BME280;50130;52.150;5.236;2023-01-29T02:24:14;102781.0;;;5.21;86.58
48892;BME280;50130;52.150;5.236;2023-01-29T02:26:38;102774.0;;;5.15;87.11
48892;BME280;50130;52.150;5.236;2023-01-29T02:28:29;102780.0;;;5.12;87.17
48892;BME280;50130;52.150;5.236;2023-01-29T02:30:16;102781.0;;;5.13;87.04
48892;BME280;50130;52.150;5.236;2023-01-29T02:32:08;102786.99999999999;;;5.13;86.37
48892;BME280;50130;52.150;5.236;2023-01-29T02:33:57;102792.0;;;5.12;86.59
48892;BME280;50130;52.150;5.236;2023-01-29T02:35:51;102792.0;;;5.12;86.12
48892;BME280;50130;52.150;5.236;2023-01-29T02:37:37;102798.0;;;5.24;85.21
48892;BME280;50130;52.150;5.236;2023-01-29T02:39:26;102807.0;;;5.18;85.57
48892;BME280;50130;52.150;5.236;2023-01-29T02:42:54;102794.0;;;5.21;85.4
48892;BME280;50130;52.150;5.236;2023-01-29T02:44:39;102792.0;;;5.2;85.77
48892;BME280;50130;52.150;5.236;2023-01-29T02:46:20;102797.0;;;5.2;86.44
48892;BME280;50130;52.150;5.236;2023-01-29T02:48:04;102796.0;;;5.17;86.27
48892;BME280;50130;52.150;5.236;2023-01-29T02:49:46;102796.0;;;5.17;87.16
48892;BME280;50130;52.150;5.236;2023-01-29T02:53:14;102794.0;;;5.12;86.94
48892;BME280;50130;52.150;5.236;2023-01-29T02:54:55;102797.0;;;5.07;87.74
48892;BME280;50130;52.150;5.236;2023-01-29T02:56:38;102797.0;;;5.13;87.28
48892;BME280;50130;52.150;5.236;2023-01-29T02:58:27;102792.0;;;5.21;86.91
48892;BME280;50130;52.150;5.236;2023-01-29T03:01:52;102796.0;;;5.16;87.01
48892;BME280;50130;52.150;5.236;2023-01-29T03:03:35;102798.0;;;5.18;86.81
48892;BME280;50130;52.150;5.236;2023-01-29T03:05:20;102792.0;;;5.14;87.43
48892;BME280;50130;52.150;5.236;2023-01-29T03:07:03;102786.99999999999;;;5.27;86.13
48892;BME280;50130;52.150;5.236;2023-01-29T03:08:46;102780.0;;;5.33;85.94
48892;BME280;50130;52.150;5.236;2023-01-29T03:12:21;102780.0;;;5.18;86.25
48892;BME280;50130;52.150;5.236;2023-01-29T03:14:10;102773.0;;;5.22;85.52
48892;BME280;50130;52.150;5.236;2023-01-29T03:15:59;102770.0;;;5.28;85.77
48892;BME280;50130;52.150;5.236;2023-01-29T03:17:42;102769.0;;;5.23;84.94
48892;BME280;50130;52.150;5.236;2023-01-29T03:19:26;102771.0;;;5.23;85.2
48892;BME280;50130;52.150;5.236;2023-01-29T03:21:51;102765.00000000001;;;5.23;85.2
48892;BME280;50130;52.150;5.236;2023-01-29T03:32:15;102759.99999999999;;;5.37;83.62
48892;BME280;50130;52.150;5.236;2023-01-29T03:33:59;102743.0;;;5.45;83.93
48892;BME280;50130;52.150;5.236;2023-01-29T03:35:50;102738.00000000001;;;5.56;83.09
48892;BME280;50130;52.150;5.236;2023-01-29T03:39:15;102740.00000000001;;;5.5;82.79
48892;BME280;50130;52.150;5.236;2023-01-29T03:40:56;102738.00000000001;;;5.47;83.56
48892;BME280;50130;52.150;5.236;2023-01-29T03:42:45;102731.0;;;5.58;82.81
48892;BME280;50130;52.150;5.236;2023-01-29T03:44:29;102728.0;;;5.4;83.6
48892;BME280;50130;52.150;5.236;2023-01-29T03:46:23;102726.0;;;5.37;83.66
48892;BME280;50130;52.150;5.236;2023-01-29T03:49:55;102722.0;;;5.43;83.76
48892;BME280;50130;52.150;5.236;2023-01-29T03:51:37;102726.0;;;5.4;83.26
48892;BME280;50130;52.150;5.236;2023-01-29T03:53:24;102731.0;;;5.45;82.7
48892;BME280;50130;52.150;5.236;2023-01-29T03:55:10;102727.0;;;5.35;83.22
48892;BME280;50130;52.150;5.236;2023-01-29T03:56:56;102720.0;;;5.35;83.45
48892;BME280;50130;52.150;5.236;2023-01-29T04:00:22;102717.0;;;5.46;83.01
48892;BME280;50130;52.150;5.236;2023-01-29T04:02:05;102719.0;;;5.45;82.78
48892;BME280;50130;52.150;5.236;2023-01-29T04:03:48;102726.0;;;5.55;82.2
48892;BME280;50130;52.150;5.236;2023-01-29T04:05:32;102721.0;;;5.48;82.28
48892;BME280;50130;52.150;5.236;2023-01-29T04:07:16;102708.99999999999;;;5.55;81.94
48892;BME280;50130;52.150;5.236;2023-01-29T04:10:40;102715.00000000001;;;5.51;82.42
48892;BME280;50130;52.150;5.236;2023-01-29T04:12:23;102703.0;;;5.64;81.86
48892;BME280;50130;52.150;5.236;2023-01-29T04:14:03;102701.0;;;5.58;81.96
48892;BME280;50130;52.150;5.236;2023-01-29T04:15:44;102708.0;;;5.38;82.89
48892;BME280;50130;52.150;5.236;2023-01-29T04:19:10;102708.99999999999;;;5.38;82.53
48892;BME280;50130;52.150;5.236;2023-01-29T04:20:47;102708.99999999999;;;5.47;82.62
48892;BME280;50130;52.150;5.236;2023-01-29T04:22:29;102713.00000000001;;;5.51;82.18
48892;BME280;50130;52.150;5.236;2023-01-29T04:24:08;102708.99999999999;;;5.49;82.5
48892;BME280;50130;52.150;5.236;2023-01-29T04:27:45;102703.0;;;5.45;82.28
48892;BME280;50130;52.150;5.236;2023-01-29T04:29:40;102700.0;;;5.49;82.42
48892;BME280;50130;52.150;5.236;2023-01-29T04:31:22;102695.0;;;5.41;82.88
48892;BME280;50130;52.150;5.236;2023-01-29T04:33:11;102695.0;;;5.43;82.2
48892;BME280;50130;52.150;5.236;2023-01-29T04:34:59;102691.00000000001;;;5.5;82.32
48892;BME280;50130;52.150;5.236;2023-01-29T04:36:48;102694.0;;;5.51;82.32
48892;BME280;50130;52.150;5.236;2023-01-29T04:38:40;102686.99999999999;;;5.44;83.23
48892;BME280;50130;52.150;5.236;2023-01-29T04:42:13;102689.00000000001;;;5.64;82.22
48892;BME280;50130;52.150;5.236;2023-01-29T04:43:58;102678.0;;;5.58;82.35
48892;BME280;50130;52.150;5.236;2023-01-29T04:45:47;102681.0;;;5.48;82.42
48892;BME280;50130;52.150;5.236;2023-01-29T04:47:34;102681.0;;;5.46;83.06
48892;BME280;50130;52.150;5.236;2023-01-29T04:49:23;102686.99999999999;;;5.48;82.31
48892;BME280;50130;52.150;5.236;2023-01-29T04:51:11;102686.99999999999;;;5.29;83.2
48892;BME280;50130;52.150;5.236;2023-01-29T04:54:48;102682.0;;;5.33;82.91
48892;BME280;50130;52.150;5.236;2023-01-29T04:57:18;102674.0;;;5.44;82.32
48892;BME280;50130;52.150;5.236;2023-01-29T04:59:00;102663.00000000001;;;5.37;83.05
48892;BME280;50130;52.150;5.236;2023-01-29T05:00:43;102663.00000000001;;;5.45;83.12
48892;BME280;50130;52.150;5.236;2023-01-29T05:02:21;102663.00000000001;;;5.47;82.68
48892;BME280;50130;52.150;5.236;2023-01-29T05:04:03;102663.00000000001;;;5.53;82.51
48892;BME280;50130;52.150;5.236;2023-01-29T05:05:45;102667.0;;;5.41;82.64
48892;BME280;50130;52.150;5.236;2023-01-29T05:09:04;102667.0;;;5.48;82.55
48892;BME280;50130;52.150;5.236;2023-01-29T05:10:43;102661.99999999999;;;5.32;83.48
48892;BME280;50130;52.150;5.236;2023-01-29T05:12:21;102658.99999999999;;;5.39;83.54
48892;BME280;50130;52.150;5.236;2023-01-29T05:14:03;102658.0;;;5.4;83.1
48892;BME280;50130;52.150;5.236;2023-01-29T05:17:24;102665.00000000001;;;5.54;82.17
48892;BME280;50130;52.150;5.236;2023-01-29T05:19:02;102663.00000000001;;;5.47;82.04
48892;BME280;50130;52.150;5.236;2023-01-29T05:20:40;102658.0;;;5.4;81.7
48892;BME280;50130;52.150;5.236;2023-01-29T05:24:09;102665.00000000001;;;5.47;81.39
48892;BME280;50130;52.150;5.236;2023-01-29T05:25:46;102667.0;;;5.45;81.84
48892;BME280;50130;52.150;5.236;2023-01-29T05:28:29;102667.0;;;5.48;81.61
48892;BME280;50130;52.150;5.236;2023-01-29T05:30:07;102667.0;;;5.65;80.77
48892;BME280;50130;52.150;5.236;2023-01-29T05:31:44;102670.0;;;5.67;80.61
48892;BME280;50130;52.150;5.236;2023-01-29T05:33:23;102665.00000000001;;;5.59;79.77
48892;BME280;50130;52.150;5.236;2023-01-29T05:35:02;102667.0;;;5.61;79.83
48892;BME280;50130;52.150;5.236;2023-01-29T05:38:16;102661.99999999999;;;5.67;80.61
48892;BME280;50130;52.150;5.236;2023-01-29T05:39:54;102661.99999999999;;;5.7;80.08
48892;BME280;50130;52.150;5.236;2023-01-29T05:41:31;102667.0;;;5.58;80.05
48892;BME280;50130;52.150;5.236;2023-01-29T05:44:51;102668.0;;;5.42;79.81
48892;BME280;50130;52.150;5.236;2023-01-29T05:46:28;102664.00000000001;;;5.57;80.3
48892;BME280;50130;52.150;5.236;2023-01-29T05:48:05;102667.0;;;5.71;79.69
48892;BME280;50130;52.150;5.236;2023-01-29T05:49:42;102675.0;;;5.7;79.02
48892;BME280;50130;52.150;5.236;2023-01-29T05:52:56;102672.0;;;5.7;78.88
48892;BME280;50130;52.150;5.236;2023-01-29T05:54:32;102670.0;;;5.77;78.94
48892;BME280;50130;52.150;5.236;2023-01-29T05:56:08;102670.0;;;5.75;78.37
48892;BME280;50130;52.150;5.236;2023-01-29T05:59:22;102667.0;;;5.69;78.41
48892;BME280;50130;52.150;5.236;2023-01-29T06:01:07;102653.0;;;5.64;79.13
48892;BME280;50130;52.150;5.236;2023-01-29T06:02:44;102651.0;;;5.67;79.2
48892;BME280;50130;52.150;5.236;2023-01-29T06:04:21;102642.0;;;5.76;78.87
48892;BME280;50130;52.150;5.236;2023-01-29T06:07:33;102639.00000000001;;;5.57;79.7
48892;BME280;50130;52.150;5.236;2023-01-29T06:09:11;102634.99999999999;;;5.53;80.12
48892;BME280;50130;52.150;5.236;2023-01-29T06:10:47;102632.0;;;5.5;79.55
48892;BME280;50130;52.150;5.236;2023-01-29T06:14:02;102633.0;;;5.53;79.95
48892;BME280;50130;52.150;5.236;2023-01-29T06:15:40;102626.0;;;5.61;79.33
48892;BME280;50130;52.150;5.236;2023-01-29T06:17:17;102633.0;;;5.47;79.67
48892;BME280;50130;52.150;5.236;2023-01-29T06:18:54;102638.00000000001;;;5.45;78.83
48892;BME280;50130;52.150;5.236;2023-01-29T06:22:07;102633.99999999999;;;5.61;78.94
48892;BME280;50130;52.150;5.236;2023-01-29T06:23:44;102634.99999999999;;;5.57;78.33
48892;BME280;50130;52.150;5.236;2023-01-29T06:25:22;102633.0;;;5.58;79.05
48892;BME280;50130;52.150;5.236;2023-01-29T06:28:34;102621.0;;;5.6;78.55
48892;BME280;50130;52.150;5.236;2023-01-29T06:30:11;102617.0;;;5.49;79.44
48892;BME280;50130;52.150;5.236;2023-01-29T06:31:48;102616.00000000001;;;5.39;79.38
48892;BME280;50130;52.150;5.236;2023-01-29T06:35:01;102613.00000000001;;;5.58;78.84
48892;BME280;50130;52.150;5.236;2023-01-29T06:36:41;102609.99999999999;;;5.52;78.33
48892;BME280;50130;52.150;5.236;2023-01-29T06:38:17;102617.0;;;5.38;78.89
48892;BME280;50130;52.150;5.236;2023-01-29T06:39:53;102616.00000000001;;;5.45;78.64
48892;BME280;50130;52.150;5.236;2023-01-29T06:43:06;102613.00000000001;;;5.53;78.87
48892;BME280;50130;52.150;5.236;2023-01-29T06:44:43;102615.00000000001;;;5.47;78.33
48892;BME280;50130;52.150;5.236;2023-01-29T06:46:20;102614.00000000001;;;5.53;78.37
48892;BME280;50130;52.150;5.236;2023-01-29T06:49:32;102617.0;;;5.48;79.05
48892;BME280;50130;52.150;5.236;2023-01-29T06:51:10;102620.0;;;5.57;78.45
48892;BME280;50130;52.150;5.236;2023-01-29T06:52:47;102624.0;;;5.45;79.33
48892;BME280;50130;52.150;5.236;2023-01-29T06:55:59;102622.0;;;5.5;78.91
48892;BME280;50130;52.150;5.236;2023-01-29T06:57:36;102626.0;;;5.62;78.59
48892;BME280;50130;52.150;5.236;2023-01-29T06:59:13;102622.0;;;5.47;79.03
48892;BME280;50130;52.150;5.236;2023-01-29T07:00:51;102625.0;;;5.44;78.78
48892;BME280;50130;52.150;5.236;2023-01-29T07:04:04;102622.0;;;5.35;79.47
48892;BME280;50130;52.150;5.236;2023-01-29T07:05:41;102620.0;;;5.37;79.49
48892;BME280;50130;52.150;5.236;2023-01-29T07:07:18;102614.00000000001;;;5.45;79.59
48892;BME280;50130;52.150;5.236;2023-01-29T07:10:31;102603.0;;;5.31;80.19
48892;BME280;50130;52.150;5.236;2023-01-29T07:12:07;102599.0;;;5.37;80.47
48892;BME280;50130;52.150;5.236;2023-01-29T07:13:44;102602.0;;;5.34;79.89
48892;BME280;50130;52.150;5.236;2023-01-29T07:15:21;102604.0;;;5.33;79.99
48892;BME280;50130;52.150;5.236;2023-01-29T07:18:35;102608.99999999999;;;5.36;79.58
48892;BME280;50130;52.150;5.236;2023-01-29T07:20:12;102613.00000000001;;;5.3;79.92
48892;BME280;50130;52.150;5.236;2023-01-29T07:21:48;102614.00000000001;;;5.25;80.75
48892;BME280;50130;52.150;5.236;2023-01-29T07:25:01;102616.00000000001;;;5.31;80.56
48892;BME280;50130;52.150;5.236;2023-01-29T07:26:38;102618.0;;;5.47;79.55
48892;BME280;50130;52.150;5.236;2023-01-29T07:28:14;102616.00000000001;;;5.4;80.05
48892;BME280;50130;52.150;5.236;2023-01-29T07:31:29;102615.00000000001;;;5.33;79.94
48892;BME280;50130;52.150;5.236;2023-01-29T07:33:07;102613.00000000001;;;5.29;80.11
48892;BME280;50130;52.150;5.236;2023-01-29T07:34:45;102616.00000000001;;;5.37;79.8
48892;BME280;50130;52.150;5.236;2023-01-29T07:36:21;102617.0;;;5.53;79.3
48892;BME280;50130;52.150;5.236;2023-01-29T07:39:35;102614.00000000001;;;5.4;80.03
48892;BME280;50130;52.150;5.236;2023-01-29T07:41:11;102609.99999999999;;;5.27;79.61
48892;BME280;50130;52.150;5.236;2023-01-29T07:42:48;102614.00000000001;;;5.42;79.48
48892;BME280;50130;52.150;5.236;2023-01-29T07:46:02;102605.0;;;5.38;79.97
48892;BME280;50130;52.150;5.236;2023-01-29T07:47:39;102601.0;;;5.38;80.13
48892;BME280;50130;52.150;5.236;2023-01-29T07:49:15;102601.0;;;5.48;79.67
48892;BME280;50130;52.150;5.236;2023-01-29T07:52:31;102599.0;;;5.38;79.38
48892;BME280;50130;52.150;5.236;2023-01-29T07:54:08;102596.0;;;5.39;79.95
48892;BME280;50130;52.150;5.236;2023-01-29T07:55:45;102598.0;;;5.32;79.69
48892;BME280;50130;52.150;5.236;2023-01-29T07:57:22;102580.0;;;5.32;79.98
48892;BME280;50130;52.150;5.236;2023-01-29T08:00:36;102580.0;;;5.37;79.36
48892;BME280;50130;52.150;5.236;2023-01-29T08:02:13;102580.0;;;5.38;80.19
48892;BME280;50130;52.150;5.236;2023-01-29T08:03:50;102578.0;;;5.4;79.98
48892;BME280;50130;52.150;5.236;2023-01-29T08:07:04;102578.0;;;5.33;79.97
48892;BME280;50130;52.150;5.236;2023-01-29T08:08:41;102575.0;;;5.3;79.53
48892;BME280;50130;52.150;5.236;2023-01-29T08:10:18;102568.0;;;5.38;79.52
48892;BME280;50130;52.150;5.236;2023-01-29T08:11:56;102572.0;;;5.39;79.03
48892;BME280;50130;52.150;5.236;2023-01-29T08:15:10;102573.0;;;5.44;79.05
48892;BME280;50130;52.150;5.236;2023-01-29T08:16:47;102568.0;;;5.54;78.92
48892;BME280;50130;52.150;5.236;2023-01-29T08:18:24;102564.00000000001;;;5.46;79.25
48892;BME280;50130;52.150;5.236;2023-01-29T08:21:38;102566.00000000001;;;5.49;79.31
48892;BME280;50130;52.150;5.236;2023-01-29T08:23:15;102570.0;;;5.5;79.37
48892;BME280;50130;52.150;5.236;2023-01-29T08:24:52;102576.0;;;5.53;79.24
48892;BME280;50130;52.150;5.236;2023-01-29T08:28:05;102580.0;;;5.48;78.91
48892;BME280;50130;52.150;5.236;2023-01-29T08:29:42;102579.0;;;5.53;78.97
48892;BME280;50130;52.150;5.236;2023-01-29T08:31:19;102574.0;;;5.52;78.58
48892;BME280;50130;52.150;5.236;2023-01-29T08:32:55;102572.0;;;5.49;78.74
48892;BME280;50130;52.150;5.236;2023-01-29T08:36:10;102569.0;;;5.6;78.64
48892;BME280;50130;52.150;5.236;2023-01-29T08:37:52;102558.99999999999;;;5.58;78.05
48892;BME280;50130;52.150;5.236;2023-01-29T08:39:31;102556.0;;;5.52;78.86
48892;BME280;50130;52.150;5.236;2023-01-29T08:41:08;102555.0;;;5.59;78.12
48892;BME280;50130;52.150;5.236;2023-01-29T08:44:20;102553.0;;;5.67;77.69
48892;BME280;50130;52.150;5.236;2023-01-29T08:45:57;102547.0;;;5.7;78.02
48892;BME280;50130;52.150;5.236;2023-01-29T08:47:34;102545.0;;;5.65;77.91
48892;BME280;50130;52.150;5.236;2023-01-29T08:50:48;102551.0;;;5.7;77.91
48892;BME280;50130;52.150;5.236;2023-01-29T08:52:24;102549.0;;;5.77;77.61
48892;BME280;50130;52.150;5.236;2023-01-29T08:54:00;102549.0;;;5.76;77.75
48892;BME280;50130;52.150;5.236;2023-01-29T08:57:15;102541.00000000001;;;5.72;78.19
48892;BME280;50130;52.150;5.236;2023-01-29T08:58:51;102546.0;;;5.83;77.83
48892;BME280;50130;52.150;5.236;2023-01-29T09:00:29;102542.0;;;5.77;77.58
48892;BME280;50130;52.150;5.236;2023-01-29T09:02:05;102541.00000000001;;;5.79;77.74
48892;BME280;50130;52.150;5.236;2023-01-29T09:05:19;102539.00000000001;;;5.74;77.58
48892;BME280;50130;52.150;5.236;2023-01-29T09:06:56;102539.00000000001;;;5.56;78.86
48892;BME280;50130;52.150;5.236;2023-01-29T09:08:33;102531.0;;;5.67;78.37
48892;BME280;50130;52.150;5.236;2023-01-29T09:11:48;102542.0;;;5.65;78.48
48892;BME280;50130;52.150;5.236;2023-01-29T09:13:24;102540.00000000001;;;5.69;78.27
48892;BME280;50130;52.150;5.236;2023-01-29T09:15:01;102540.00000000001;;;5.78;77.8
48892;BME280;50130;52.150;5.236;2023-01-29T09:18:15;102545.0;;;5.8;77.52
48892;BME280;50130;52.150;5.236;2023-01-29T09:19:52;102541.00000000001;;;5.84;77.98
48892;BME280;50130;52.150;5.236;2023-01-29T09:21:29;102534.99999999999;;;5.7;78.34
48892;BME280;50130;52.150;5.236;2023-01-29T09:23:06;102533.0;;;5.72;78.77
48892;BME280;50130;52.150;5.236;2023-01-29T09:26:21;102533.99999999999;;;5.87;77.8
48892;BME280;50130;52.150;5.236;2023-01-29T09:27:58;102542.0;;;5.76;77.94
48892;BME280;50130;52.150;5.236;2023-01-29T09:32:49;102543.0;;;5.89;77.11
48892;BME280;50130;52.150;5.236;2023-01-29T09:34:26;102539.00000000001;;;5.98;77.08
48892;BME280;50130;52.150;5.236;2023-01-29T09:36:03;102543.0;;;5.89;77.38
48892;BME280;50130;52.150;5.236;2023-01-29T09:37:39;102544.0;;;5.96;76.77
48892;BME280;50130;52.150;5.236;2023-01-29T09:40:58;102541.00000000001;;;6.03;76.05
48892;BME280;50130;52.150;5.236;2023-01-29T09:42:44;102548.0;;;5.98;76.25
48892;BME280;50130;52.150;5.236;2023-01-29T09:44:32;102545.0;;;5.95;76.2
48892;BME280;50130;52.150;5.236;2023-01-29T09:46:31;102548.0;;;5.93;76.99
48892;BME280;50130;52.150;5.236;2023-01-29T09:48:13;102552.0;;;5.89;77.05
48892;BME280;50130;52.150;5.236;2023-01-29T09:51:35;102546.0;;;6.1;76.28
48892;BME280;50130;52.150;5.236;2023-01-29T09:53:18;102542.0;;;6.02;76.56
48892;BME280;50130;52.150;5.236;2023-01-29T09:55:02;102542.0;;;5.92;76.47
48892;BME280;50130;52.150;5.236;2023-01-29T09:56:44;102533.99999999999;;;5.95;76.77
48892;BME280;50130;52.150;5.236;2023-01-29T10:00:04;102542.0;;;5.84;77.31
48892;BME280;50130;52.150;5.236;2023-01-29T10:01:49;102539.00000000001;;;6.0;76.49
48892;BME280;50130;52.150;5.236;2023-01-29T10:03:42;102541.00000000001;;;5.97;76.7
48892;BME280;50130;52.150;5.236;2023-01-29T10:05:37;102542.0;;;5.96;77.25
48892;BME280;50130;52.150;5.236;2023-01-29T10:07:41;102533.0;;;6.05;77.08
48892;BME280;50130;52.150;5.236;2023-01-29T10:10:00;102530.0;;;6.02;76.75
48892;BME280;50130;52.150;5.236;2023-01-29T10:11:59;102531.0;;;6.14;76.86
48892;BME280;50130;52.150;5.236;2023-01-29T10:13:50;102528.0;;;6.04;76.73
48892;BME280;50130;52.150;5.236;2023-01-29T10:15:47;102534.99999999999;;;5.91;77.83
48892;BME280;50130;52.150;5.236;2023-01-29T10:17:40;102531.0;;;6.12;77.27
48892;BME280;50130;52.150;5.236;2023-01-29T10:23:07;102529.0;;;5.95;77.52
48892;BME280;50130;52.150;5.236;2023-01-29T10:24:56;102522.0;;;5.98;77.27
48892;BME280;50130;52.150;5.236;2023-01-29T10:26:37;102521.0;;;6.03;77.14
48892;BME280;50130;52.150;5.236;2023-01-29T10:28:17;102516.00000000001;;;5.97;77.17
48892;BME280;50130;52.150;5.236;2023-01-29T10:29:55;102516.00000000001;;;6.01;77.0
48892;BME280;50130;52.150;5.236;2023-01-29T10:33:18;102513.00000000001;;;6.06;77.47
48892;BME280;50130;52.150;5.236;2023-01-29T10:35:12;102504.0;;;5.92;77.11
48892;BME280;50130;52.150;5.236;2023-01-29T10:36:58;102503.0;;;6.11;76.98
48892;BME280;50130;52.150;5.236;2023-01-29T10:38:41;102507.0;;;6.05;76.69
48892;BME280;50130;52.150;5.236;2023-01-29T10:42:12;102496.0;;;6.03;76.95
48892;BME280;50130;52.150;5.236;2023-01-29T10:45:53;102489.00000000001;;;6.18;77.25
48892;BME280;50130;52.150;5.236;2023-01-29T10:47:47;102488.00000000001;;;6.17;76.92
48892;BME280;50130;52.150;5.236;2023-01-29T10:50:31;102483.0;;;6.0;76.44
48892;BME280;50130;52.150;5.236;2023-01-29T10:52:34;102484.99999999999;;;6.05;77.39
48892;BME280;50130;52.150;5.236;2023-01-29T10:54:26;102486.99999999999;;;6.07;77.0
48892;BME280;50130;52.150;5.236;2023-01-29T10:56:23;102483.0;;;6.04;77.3
48892;BME280;50130;52.150;5.236;2023-01-29T10:58:12;102476.0;;;6.02;77.66
48892;BME280;50130;52.150;5.236;2023-01-29T11:00:02;102475.0;;;6.05;77.61
48892;BME280;50130;52.150;5.236;2023-01-29T11:01:43;102468.0;;;6.13;77.27
48892;BME280;50130;52.150;5.236;2023-01-29T11:05:00;102465.00000000001;;;6.17;77.55
48892;BME280;50130;52.150;5.236;2023-01-29T11:06:37;102456.0;;;6.16;77.16
48892;BME280;50130;52.150;5.236;2023-01-29T11:08:18;102457.0;;;6.14;77.37
48892;BME280;50130;52.150;5.236;2023-01-29T11:09:59;102457.0;;;6.18;76.91
48892;BME280;50130;52.150;5.236;2023-01-29T11:13:18;102452.0;;;6.11;77.77
48892;BME280;50130;52.150;5.236;2023-01-29T11:15:15;102455.0;;;6.23;76.98
48892;BME280;50130;52.150;5.236;2023-01-29T11:16:54;102452.0;;;6.21;77.05